Observations for CAMBRIDGE, United Kingdom (EGSC)

EGSC 221220Z 13004KT 080V200 9999 SCT019 21/16 Q1019
EGSC 221150Z VRB03KT 9999 BKN019 21/17 Q1020
EGSC 221120Z VRB03KT 9000 BKN016 21/16 Q1020
EGSC 221050Z 16005KT 9000 BKN014 20/16 Q1020
EGSC 221020Z 18005KT 9000 BKN014 20/16 Q1020
EGSC 220950Z 16005KT 9999 BKN014 19/17 Q1020
EGSC 220920Z 16005KT 9999 SCT018 BKN035 19/16 Q1020 
EGSC 220850Z 17006KT 9999 FEW013 OVC017 19/16 Q1020 
EGSC 220750Z 18006KT 9999 SCT013 OVC017 18/16 Q1020 
EGSC 220720Z VRB03KT 9999 OVC001 18/16 Q1020
EGSC 220650Z 15004KT 9999 BKN017 17/15 Q1020
EGSC 220620Z 15004KT 9999 BKN017 17/15 Q1020
EGSC 211650Z 18007KT 150V210 9999 BKN022 19/14 Q1021
EGSC 211620Z 16007KT 9999 BKN022 19/14 Q1021
EGSC 211550Z 20007KT 170V230 9999 BKN024 19/14 Q1021
EGSC 211520Z 14004KT 060V210 9999 BKN021 20/14 Q1021
EGSC 211450Z 12006KT 090V150 9999 BKN021 19/15 Q1021
EGSC 211420Z 17007KT 9999 FEW017 BKN023 20/15 Q1021 
EGSC 211350Z 17007KT 9999 FEW018 BKN024 19/15 Q1021 
EGSC 211320Z 19008KT 9999 FEW020 BKN026 19/15 Q1021 
EGSC 211250Z 16009KT 9999 FEW019 BKN024 19/14 Q1021 
EGSC 211220Z 16007KT 130V200 9999 FEW019 BKN024 18/15 Q1021 
EGSC 211150Z 16008KT 9999 FEW014 BKN017 18/15 Q1022